Time;durP1;ratioP1;P1;durP2;ratioP2;P2;SDS_P1;SDS_P2;PMS_P1;PMS_P2;Temp;Humidity;BMP_temperature;BMP_pressure;BME280_temperature;BME280_humidity;BME280_pressure;Samples;Min_cycle;Max_cycle;Signal;HPM_P1;HPM_P2
2022/10/12 00:01:26;;;;;;;81.10;18.10;;;6.40;99.90;;;;;;5027306;28;20215;-84
2022/10/12 00:03:51;;;;;;;78.10;17.67;;;6.30;99.90;;;;;;5043853;28;20252;-84
2022/10/12 00:06:19;;;;;;;80.07;19.10;;;6.30;99.90;;;;;;5042955;28;20162;-84
2022/10/12 00:08:47;;;;;;;74.85;18.17;;;6.30;99.90;;;;;;5043363;28;20201;-84
2022/10/12 00:11:19;;;;;;;78.88;16.27;;;6.30;99.90;;;;;;5026237;28;20199;-84
2022/10/12 00:13:45;;;;;;;76.32;18.90;;;6.30;99.90;;;;;;5043935;28;20181;-84
2022/10/12 00:16:13;;;;;;;77.63;19.40;;;6.30;99.90;;;;;;5043327;28;20176;-84
2022/10/12 00:18:39;;;;;;;82.72;20.23;;;6.30;99.90;;;;;;5044532;28;20188;-84
2022/10/12 00:21:08;;;;;;;80.07;20.77;;;6.30;99.90;;;;;;5046607;28;20165;-84
2022/10/12 00:23:35;;;;;;;77.15;19.20;;;6.30;99.90;;;;;;5029419;28;20165;-84
2022/10/12 00:26:04;;;;;;;76.75;18.98;;;6.30;99.90;;;;;;5046231;28;20165;-84
2022/10/12 00:28:30;;;;;;;76.68;19.33;;;6.40;99.90;;;;;;5012222;28;20302;-84
2022/10/12 00:30:56;;;;;;;85.43;19.95;;;6.40;99.90;;;;;;5026908;28;20194;-84
2022/10/12 00:33:23;;;;;;;77.80;18.67;;;6.40;99.90;;;;;;5044932;28;20183;-84
2022/10/12 00:35:48;;;;;;;77.95;19.13;;;6.30;99.90;;;;;;5045416;28;20164;-84
2022/10/12 00:38:14;;;;;;;80.33;18.90;;;6.30;99.90;;;;;;5026996;28;20279;-84
2022/10/12 00:40:40;;;;;;;76.17;20.23;;;6.20;99.90;;;;;;5045251;28;20165;-84
2022/10/12 00:43:28;;;;;;;82.90;19.77;;;6.30;99.90;;;;;;5045983;28;20169;-84
2022/10/12 00:45:55;;;;;;;79.30;19.27;;;6.30;99.90;;;;;;5044201;28;20617;-84
2022/10/12 00:48:21;;;;;;;77.65;18.85;;;6.20;99.90;;;;;;5027049;28;20228;-84
2022/10/12 00:50:47;;;;;;;79.55;19.15;;;6.20;99.90;;;;;;5026942;28;20244;-84
2022/10/12 00:53:16;;;;;;;78.87;18.77;;;6.10;99.90;;;;;;5044224;28;20211;-84
2022/10/12 00:56:00;;;;;;;79.82;19.92;;;6.10;99.90;;;;;;5044989;28;20173;-84
2022/10/12 00:58:30;;;;;;;75.25;19.98;;;6.10;99.90;;;;;;5026089;28;20228;-84
2022/10/12 01:00:56;;;;;;;73.93;19.52;;;6.00;99.90;;;;;;5044461;28;20158;-84
2022/10/12 01:03:22;;;;;;;77.72;18.80;;;6.10;99.90;;;;;;5043889;28;20169;-84
2022/10/12 01:05:48;;;;;;;77.20;20.33;;;6.00;99.90;;;;;;5043051;28;20169;-84
2022/10/12 01:08:13;;;;;;;75.40;19.65;;;6.00;99.90;;;;;;5042145;28;20226;-84
2022/10/12 01:10:39;;;;;;;76.37;19.10;;;6.00;99.90;;;;;;5042372;28;20176;-84
2022/10/12 01:13:05;;;;;;;75.50;19.13;;;5.90;99.90;;;;;;5043379;28;20169;-84
2022/10/12 01:16:03;;;;;;;76.18;20.90;;;5.90;99.90;;;;;;5043010;28;20161;-84
2022/10/12 01:18:50;;;;;;;77.40;19.83;;;5.90;99.90;;;;;;5025004;28;20204;-84
2022/10/12 01:21:22;;;;;;;75.05;17.98;;;5.90;99.90;;;;;;5025256;28;20734;-84
2022/10/12 01:24:00;;;;;;;77.63;20.33;;;5.90;99.90;;;;;;5042360;28;20146;-84
2022/10/12 01:26:35;;;;;;;75.30;21.08;;;6.00;99.90;;;;;;5042761;28;20168;-84
2022/10/12 01:29:41;;;;;;;80.20;25.60;;;6.00;99.90;;;;;;5042995;28;20184;-84
2022/10/12 01:32:14;;;;;;;81.43;23.67;;;6.00;99.90;;;;;;5025387;28;20199;-84
2022/10/12 01:34:42;;;;;;;79.88;25.05;;;6.10;99.90;;;;;;5043371;28;20157;-84
2022/10/12 01:37:26;;;;;;;79.05;25.40;;;6.00;99.90;;;;;;5042938;28;20161;-84
2022/10/12 01:39:55;;;;;;;81.63;26.15;;;6.10;99.90;;;;;;5042139;28;20204;-84
2022/10/12 01:42:30;;;;;;;82.38;28.33;;;6.00;99.90;;;;;;5024801;28;20552;-84
2022/10/12 01:45:06;;;;;;;82.30;29.70;;;6.00;99.90;;;;;;5042712;28;20521;-84
2022/10/12 01:47:33;;;;;;;83.22;34.92;;;6.00;99.90;;;;;;5041729;28;20168;-84
2022/10/12 01:50:01;;;;;;;81.30;32.92;;;6.00;99.90;;;;;;5041202;28;20624;-84
2022/10/12 01:52:29;;;;;;;85.72;41.25;;;5.90;99.90;;;;;;5024301;28;20200;-84
2022/10/12 01:55:23;;;;;;;80.20;33.72;;;5.90;99.90;;;;;;5023596;28;20166;-84
2022/10/12 01:58:14;;;;;;;83.03;35.90;;;6.00;99.90;;;;;;5041112;28;20172;-84
2022/10/12 02:00:48;;;;;;;87.95;34.85;;;6.10;99.90;;;;;;5040881;28;20150;-84
2022/10/12 02:03:32;;;;;;;83.22;35.33;;;6.10;99.90;;;;;;5023822;28;20172;-84
2022/10/12 02:06:12;;;;;;;85.13;32.35;;;6.10;99.90;;;;;;5023387;28;20183;-84
2022/10/12 02:08:51;;;;;;;83.20;35.42;;;6.00;99.90;;;;;;5040521;28;20196;-84
2022/10/12 02:11:19;;;;;;;80.57;35.35;;;6.00;99.90;;;;;;5023653;28;20189;-84
2022/10/12 02:13:53;;;;;;;84.13;37.40;;;6.00;99.90;;;;;;5040709;28;20195;-84
2022/10/12 02:16:26;;;;;;;83.53;39.38;;;6.00;99.90;;;;;;5023167;28;20157;-84
2022/10/12 02:18:54;;;;;;;82.22;39.55;;;6.00;99.90;;;;;;5022952;28;20184;-84
2022/10/12 02:21:29;;;;;;;81.72;36.35;;;6.00;99.90;;;;;;5040943;28;20165;-84
2022/10/12 02:23:58;;;;;;;84.00;40.95;;;5.90;99.90;;;;;;5040137;28;20156;-84
2022/10/12 02:26:24;;;;;;;83.63;40.83;;;5.90;99.90;;;;;;5040399;28;20645;-84
2022/10/12 02:28:50;;;;;;;85.38;37.70;;;5.90;99.90;;;;;;5040526;28;20216;-84
2022/10/12 02:31:36;;;;;;;81.97;39.40;;;5.80;99.90;;;;;;5040802;28;20194;-84
2022/10/12 02:34:11;;;;;;;86.60;39.90;;;5.80;99.90;;;;;;5041169;28;20188;-84
2022/10/12 02:37:01;;;;;;;85.82;39.15;;;5.80;99.90;;;;;;5040813;28;20160;-84
2022/10/12 02:39:38;;;;;;;83.90;37.00;;;5.80;99.90;;;;;;5039941;28;20181;-84
2022/10/12 02:42:11;;;;;;;81.15;40.30;;;5.80;99.90;;;;;;5040308;28;20169;-84
2022/10/12 02:44:40;;;;;;;82.60;38.55;;;5.80;99.90;;;;;;5022621;28;20168;-84
2022/10/12 02:47:08;;;;;;;81.90;35.85;;;5.70;99.90;;;;;;5022815;28;20169;-84
2022/10/12 02:49:35;;;;;;;82.32;37.63;;;5.60;99.90;;;;;;5040376;28;20181;-84
2022/10/12 02:52:05;;;;;;;84.35;33.20;;;5.60;99.90;;;;;;5040279;28;20224;-84
2022/10/12 02:54:31;;;;;;;83.00;38.38;;;5.50;99.90;;;;;;5040859;28;20202;-84
2022/10/12 02:56:56;;;;;;;85.00;41.83;;;5.60;99.90;;;;;;5022096;28;20161;-84
2022/10/12 02:59:22;;;;;;;82.93;40.77;;;5.60;99.90;;;;;;5021928;28;20185;-84
2022/10/12 03:01:48;;;;;;;84.32;40.45;;;5.50;99.90;;;;;;5022326;28;20174;-84
2022/10/12 03:04:15;;;;;;;82.47;38.10;;;5.60;99.90;;;;;;5040213;28;20295;-84
2022/10/12 03:06:43;;;;;;;85.45;36.05;;;5.60;99.90;;;;;;5039633;28;20169;-84
2022/10/12 03:09:09;;;;;;;85.15;41.85;;;5.60;99.90;;;;;;5039851;28;20215;-84
2022/10/12 03:11:36;;;;;;;82.57;41.87;;;5.60;99.90;;;;;;5038863;28;20197;-84
2022/10/12 03:14:02;;;;;;;87.95;37.03;;;5.60;99.90;;;;;;5040177;28;20158;-84
2022/10/12 03:16:28;;;;;;;81.75;36.65;;;5.60;99.90;;;;;;5039982;28;20167;-84
2022/10/12 03:18:53;;;;;;;81.47;34.07;;;5.70;99.90;;;;;;5039600;28;20181;-84
2022/10/12 03:21:19;;;;;;;82.10;38.00;;;5.60;99.90;;;;;;5021564;28;20169;-84
2022/10/12 03:23:45;;;;;;;81.63;34.07;;;5.60;99.90;;;;;;5041943;28;20181;-84
2022/10/12 03:26:11;;;;;;;79.77;27.93;;;5.70;99.90;;;;;;5022743;28;20184;-84
2022/10/12 03:28:36;;;;;;;83.10;25.50;;;5.80;99.90;;;;;;5023432;28;20189;-84
2022/10/12 03:31:02;;;;;;;78.60;22.70;;;5.80;99.90;;;;;;5040454;28;20197;-84
2022/10/12 03:33:28;;;;;;;83.90;22.30;;;5.90;99.90;;;;;;5026349;28;20166;-84
2022/10/12 03:35:53;;;;;;;82.53;20.07;;;5.90;99.90;;;;;;5044992;28;20161;-84
2022/10/12 03:38:19;;;;;;;79.37;21.30;;;6.00;99.90;;;;;;5044420;28;20217;-84
2022/10/12 03:40:45;;;;;;;78.15;18.10;;;6.00;99.90;;;;;;5043447;28;20176;-84
2022/10/12 03:43:12;;;;;;;81.28;21.08;;;6.00;99.90;;;;;;5026302;28;20185;-84
2022/10/12 03:45:38;;;;;;;75.80;19.92;;;6.10;99.90;;;;;;5043929;28;20517;-84
2022/10/12 03:48:05;;;;;;;80.50;17.60;;;6.10;99.90;;;;;;5044741;28;20173;-84
2022/10/12 03:50:36;;;;;;;79.03;18.75;;;6.10;99.90;;;;;;5044514;28;20434;-84
2022/10/12 03:53:03;;;;;;;79.07;19.73;;;6.10;99.90;;;;;;5025875;28;20248;-84
2022/10/12 03:55:30;;;;;;;76.63;17.80;;;6.10;99.90;;;;;;5043196;28;20166;-84
2022/10/12 03:57:55;;;;;;;77.03;17.35;;;6.00;99.90;;;;;;5043762;28;20734;-84
2022/10/12 04:00:21;;;;;;;74.90;19.07;;;5.90;99.90;;;;;;5043850;28;20174;-84
2022/10/12 04:02:47;;;;;;;76.73;23.00;;;5.90;99.90;;;;;;5043375;28;20176;-84
2022/10/12 04:05:13;;;;;;;78.87;24.27;;;6.00;99.90;;;;;;5025960;28;20412;-84
2022/10/12 04:07:38;;;;;;;73.87;17.17;;;5.90;99.90;;;;;;5043746;28;20173;-84
2022/10/12 04:10:05;;;;;;;84.17;18.80;;;5.90;99.90;;;;;;5042790;28;20188;-84
2022/10/12 04:12:30;;;;;;;81.07;15.95;;;5.90;99.90;;;;;;5043767;28;20189;-84
2022/10/12 04:14:56;;;;;;;80.77;18.67;;;5.90;99.90;;;;;;5025134;28;20172;-84
2022/10/12 04:17:22;;;;;;;81.83;18.10;;;5.90;99.90;;;;;;5043025;28;20244;-84
2022/10/12 04:19:47;;;;;;;75.87;16.00;;;5.90;99.90;;;;;;5043115;28;20220;-84
2022/10/12 04:22:13;;;;;;;78.70;17.17;;;5.90;99.90;;;;;;5043023;28;20168;-84
2022/10/12 04:24:39;;;;;;;76.10;17.80;;;5.80;99.90;;;;;;5025093;28;20176;-84
2022/10/12 04:27:04;;;;;;;79.57;19.23;;;5.80;99.90;;;;;;5042541;28;20405;-84
2022/10/12 04:29:30;;;;;;;75.70;17.10;;;5.70;99.90;;;;;;5042926;28;20192;-84
2022/10/12 04:31:56;;;;;;;78.30;17.53;;;5.70;99.90;;;;;;5042937;28;20683;-84
2022/10/12 04:34:21;;;;;;;74.07;16.33;;;5.60;99.90;;;;;;5042421;28;20169;-84
2022/10/12 04:36:47;;;;;;;80.90;16.53;;;5.60;99.90;;;;;;5041925;28;20165;-84
2022/10/12 04:39:13;;;;;;;79.37;15.80;;;5.60;99.90;;;;;;5042532;28;20189;-84
2022/10/12 04:41:38;;;;;;;74.77;16.47;;;5.60;99.90;;;;;;5024306;28;20219;-84
2022/10/12 04:44:05;;;;;;;80.10;16.63;;;5.60;99.90;;;;;;5041684;28;20221;-84
2022/10/12 04:46:31;;;;;;;83.38;16.90;;;5.70;99.90;;;;;;5041627;28;20177;-84
2022/10/12 04:48:57;;;;;;;80.30;17.40;;;5.70;99.90;;;;;;5041869;28;20268;-84
2022/10/12 04:51:23;;;;;;;77.87;18.87;;;5.80;99.90;;;;;;5041540;28;20213;-84
2022/10/12 04:53:49;;;;;;;75.93;20.60;;;5.80;99.90;;;;;;5041517;28;20688;-84
2022/10/12 04:56:15;;;;;;;73.90;17.70;;;5.80;99.90;;;;;;5041786;28;20165;-84
2022/10/12 04:58:41;;;;;;;79.10;19.33;;;5.90;99.90;;;;;;5023586;28;20656;-84
2022/10/12 05:01:07;;;;;;;81.47;18.30;;;5.90;99.90;;;;;;5041990;28;20177;-84
2022/10/12 05:03:32;;;;;;;79.07;17.57;;;6.00;99.90;;;;;;5041508;28;20173;-84
2022/10/12 05:05:58;;;;;;;78.93;19.00;;;6.00;99.90;;;;;;5041870;28;20169;-84
2022/10/12 05:08:24;;;;;;;79.70;18.57;;;6.00;99.90;;;;;;5104101;22;20534;-84
2022/10/12 05:10:52;;;;;;;76.85;16.63;;;6.00;99.90;;;;;;5048188;28;20165;-84
2022/10/12 05:13:18;;;;;;;71.22;15.18;;;6.00;99.90;;;;;;5030547;28;20173;-84
2022/10/12 05:15:46;;;;;;;74.53;15.53;;;6.00;99.90;;;;;;5029952;28;20169;-84
2022/10/12 05:18:15;;;;;;;75.78;18.08;;;5.90;99.90;;;;;;5046862;28;20193;-85
2022/10/12 05:20:42;;;;;;;75.30;18.65;;;5.80;99.90;;;;;;5028021;28;20185;-84
2022/10/12 05:23:09;;;;;;;78.32;16.55;;;5.90;99.90;;;;;;5045334;28;20162;-85
2022/10/12 05:25:35;;;;;;;75.85;17.35;;;5.90;99.90;;;;;;5027439;28;20169;-85
2022/10/12 05:28:01;;;;;;;87.70;16.67;;;5.80;99.90;;;;;;5027665;28;20212;-85
2022/10/12 05:30:27;;;;;;;82.63;16.43;;;5.80;99.90;;;;;;5028378;28;20199;-84
2022/10/12 05:32:53;;;;;;;77.07;16.40;;;5.80;99.90;;;;;;5045065;28;20473;-84
2022/10/12 05:35:18;;;;;;;80.00;18.87;;;5.80;99.90;;;;;;5027394;28;20652;-84
2022/10/12 05:37:44;;;;;;;80.10;16.60;;;5.80;99.90;;;;;;5026811;28;20165;-84
2022/10/12 05:40:11;;;;;;;79.57;15.97;;;5.80;99.90;;;;;;5026938;28;20173;-84
2022/10/12 05:42:36;;;;;;;77.50;16.70;;;5.80;99.90;;;;;;5027355;28;20927;-84
2022/10/12 05:45:02;;;;;;;75.60;14.23;;;5.80;99.90;;;;;;5045629;28;20192;-84
2022/10/12 05:47:28;;;;;;;79.05;16.58;;;5.80;99.90;;;;;;5045734;28;20222;-84
2022/10/12 05:49:54;;;;;;;76.57;16.40;;;5.70;99.90;;;;;;5049012;28;20233;-84
2022/10/12 05:52:19;;;;;;;72.90;13.37;;;5.70;99.90;;;;;;5030782;28;20193;-85
2022/10/12 05:54:45;;;;;;;86.87;14.50;;;5.60;99.90;;;;;;5047124;28;20185;-85
2022/10/12 05:57:13;;;;;;;74.50;14.87;;;5.60;99.90;;;;;;5048498;28;20170;-84
2022/10/12 05:59:39;;;;;;;75.72;14.52;;;5.50;99.90;;;;;;5047789;28;20603;-85
2022/10/12 06:02:04;;;;;;;76.07;14.10;;;5.50;99.90;;;;;;5030319;28;20249;-84
2022/10/12 06:04:30;;;;;;;76.03;14.70;;;5.50;99.90;;;;;;5047560;28;20184;-84
2022/10/12 06:06:56;;;;;;;76.63;15.87;;;5.50;99.90;;;;;;5047747;28;20189;-84
2022/10/12 06:09:21;;;;;;;79.20;16.83;;;5.40;99.90;;;;;;5030832;28;20205;-84
2022/10/12 06:11:47;;;;;;;73.07;14.87;;;5.40;99.90;;;;;;5031212;28;20243;-85
2022/10/12 06:14:16;;;;;;;76.67;15.37;;;5.40;99.90;;;;;;5049230;28;20636;-84
2022/10/12 06:16:50;;;;;;;78.05;14.27;;;5.40;99.90;;;;;;5049127;28;20184;-84
2022/10/12 06:19:16;;;;;;;77.32;12.88;;;5.40;99.90;;;;;;5032017;28;20188;-84
2022/10/12 06:21:42;;;;;;;76.20;13.30;;;5.40;99.90;;;;;;5049701;28;20164;-85
2022/10/12 06:24:08;;;;;;;79.80;14.73;;;5.40;99.90;;;;;;5048494;28;20212;-85
2022/10/12 06:26:33;;;;;;;83.40;16.57;;;5.40;99.90;;;;;;5030756;28;20177;-84
2022/10/12 06:28:59;;;;;;;96.63;16.33;;;5.40;99.90;;;;;;5031574;28;20442;-85
2022/10/12 06:31:28;;;;;;;81.40;18.00;;;5.50;99.90;;;;;;5048842;28;20192;-84
2022/10/12 06:33:54;;;;;;;79.85;19.45;;;5.50;99.90;;;;;;5048796;28;20420;-85
2022/10/12 06:36:26;;;;;;;81.90;18.10;;;5.50;99.90;;;;;;5048591;28;20157;-85
2022/10/12 06:38:52;;;;;;;85.10;18.75;;;5.60;99.90;;;;;;5030715;28;20191;-84
2022/10/12 06:41:18;;;;;;;82.90;18.83;;;5.60;99.90;;;;;;5047529;28;20514;-84
2022/10/12 06:43:43;;;;;;;91.37;17.43;;;5.60;99.90;;;;;;5030096;28;20438;-84
2022/10/12 06:46:09;;;;;;;88.70;24.63;;;5.60;99.90;;;;;;5030681;28;20165;-84
2022/10/12 06:48:35;;;;;;;92.50;21.80;;;5.70;99.90;;;;;;5031028;28;20193;-84
2022/10/12 06:51:00;;;;;;;119.90;21.03;;;5.80;99.90;;;;;;5031840;28;20404;-84
2022/10/12 06:53:29;;;;;;;87.97;20.40;;;5.80;99.90;;;;;;5048697;28;20521;-84
2022/10/12 06:55:55;;;;;;;96.40;18.98;;;5.90;99.90;;;;;;5031781;28;20161;-84
2022/10/12 06:58:21;;;;;;;107.60;18.53;;;5.90;99.90;;;;;;5030429;28;20199;-84
2022/10/12 07:00:46;;;;;;;114.17;19.50;;;5.90;99.90;;;;;;5032090;28;20264;-84
2022/10/12 07:03:13;;;;;;;101.10;18.10;;;5.90;99.90;;;;;;5049134;28;20165;-84
2022/10/12 07:05:38;;;;;;;96.03;18.23;;;6.00;99.90;;;;;;5031120;28;20177;-84
2022/10/12 07:08:04;;;;;;;95.73;18.60;;;6.00;99.90;;;;;;5051111;28;20191;-84
2022/10/12 07:10:30;;;;;;;101.30;18.33;;;6.00;99.90;;;;;;5031909;28;20414;-84
2022/10/12 07:12:55;;;;;;;131.47;16.73;;;6.00;99.90;;;;;;5049639;28;20251;-84
2022/10/12 07:15:21;;;;;;;102.03;18.20;;;6.00;99.90;;;;;;5049647;28;20220;-84
2022/10/12 07:17:47;;;;;;;115.20;22.40;;;6.00;99.90;;;;;;5031680;28;20165;-84
2022/10/12 07:20:12;;;;;;;107.03;18.87;;;6.20;99.90;;;;;;5050238;28;20169;-84
2022/10/12 07:22:38;;;;;;;93.30;20.40;;;6.30;99.90;;;;;;5050296;28;20193;-84
2022/10/12 07:25:13;;;;;;;107.90;21.67;;;6.40;99.90;;;;;;5049672;28;20165;-84
2022/10/12 07:27:39;;;;;;;112.07;21.25;;;6.50;99.90;;;;;;5049255;28;20157;-84
2022/10/12 07:30:05;;;;;;;100.30;21.57;;;6.50;99.90;;;;;;5049666;28;20233;-84
2022/10/12 07:32:30;;;;;;;88.30;22.27;;;6.60;99.90;;;;;;5048990;28;20193;-84
2022/10/12 07:34:56;;;;;;;99.77;23.23;;;6.70;99.90;;;;;;5050287;28;20652;-84
2022/10/12 07:37:22;;;;;;;102.40;20.40;;;6.80;99.90;;;;;;5031323;28;20176;-84
2022/10/12 07:39:48;;;;;;;96.47;23.77;;;6.90;99.90;;;;;;5051126;28;20181;-84
2022/10/12 07:42:14;;;;;;;92.82;21.67;;;7.00;99.90;;;;;;5036058;28;20411;-84
2022/10/12 07:44:39;;;;;;;99.93;21.50;;;7.10;99.90;;;;;;5034701;28;20195;-84
2022/10/12 07:47:05;;;;;;;92.93;20.07;;;7.10;99.90;;;;;;5052902;28;20169;-84
2022/10/12 07:49:31;;;;;;;95.07;23.40;;;7.20;99.90;;;;;;5052541;28;20213;-84
2022/10/12 07:51:57;;;;;;;95.10;20.13;;;7.30;99.90;;;;;;5034155;28;20256;-84
2022/10/12 07:54:22;;;;;;;92.00;21.90;;;7.30;99.90;;;;;;5051853;28;20385;-85
2022/10/12 07:56:48;;;;;;;92.30;23.87;;;7.40;99.90;;;;;;5051958;28;20580;-84
2022/10/12 07:59:15;;;;;;;90.60;26.48;;;7.40;99.90;;;;;;5051538;28;20436;-84
2022/10/12 08:01:41;;;;;;;99.97;26.63;;;7.40;99.90;;;;;;5033581;28;20173;-84
2022/10/12 08:04:06;;;;;;;96.27;28.60;;;7.50;99.90;;;;;;5052746;28;20162;-84
2022/10/12 08:06:33;;;;;;;99.27;27.87;;;7.50;99.90;;;;;;5033946;28;20169;-84
2022/10/12 08:09:03;;;;;;;100.57;28.05;;;7.60;99.90;;;;;;5050812;28;20231;-84
2022/10/12 08:11:29;;;;;;;97.55;29.25;;;7.70;99.90;;;;;;5034307;28;20201;-84
2022/10/12 08:13:55;;;;;;;101.85;29.55;;;7.70;99.90;;;;;;5051321;28;20157;-84
2022/10/12 08:16:21;;;;;;;91.77;24.43;;;7.80;99.90;;;;;;5051481;28;20172;-84
2022/10/12 08:18:47;;;;;;;89.47;24.33;;;7.90;99.90;;;;;;5032662;28;20451;-84
2022/10/12 08:21:14;;;;;;;93.65;23.42;;;7.90;99.90;;;;;;5050562;28;20165;-84
2022/10/12 08:23:43;;;;;;;93.43;24.67;;;8.00;99.90;;;;;;5051363;28;20215;-84
2022/10/12 08:26:09;;;;;;;92.20;21.02;;;8.10;99.90;;;;;;5033948;28;20173;-84
2022/10/12 08:28:35;;;;;;;96.97;25.23;;;8.00;99.90;;;;;;5050914;28;20216;-84
2022/10/12 08:31:08;;;;;;;84.82;21.85;;;8.20;99.90;;;;;;5033815;28;20241;-85
2022/10/12 08:33:34;;;;;;;87.80;21.83;;;8.30;99.90;;;;;;5033461;28;20237;-85
2022/10/12 08:36:02;;;;;;;88.47;23.87;;;8.30;99.90;;;;;;5051804;28;20162;-84
2022/10/12 08:38:31;;;;;;;83.03;20.85;;;8.40;99.90;;;;;;5051629;28;20178;-85
2022/10/12 08:41:05;;;;;;;86.75;24.27;;;8.50;99.90;;;;;;5033798;28;20177;-84
2022/10/12 08:43:31;;;;;;;93.05;22.58;;;8.50;99.90;;;;;;5034142;28;20223;-84
2022/10/12 08:46:00;;;;;;;87.43;21.50;;;8.50;99.90;;;;;;5051119;28;20157;-84
2022/10/12 08:48:30;;;;;;;87.68;21.67;;;8.40;99.90;;;;;;5051477;28;20203;-84
2022/10/12 08:51:04;;;;;;;83.85;20.58;;;8.50;99.90;;;;;;5051395;28;20164;-84
2022/10/12 08:53:34;;;;;;;90.75;22.60;;;8.50;99.90;;;;;;5050867;28;20233;-84
2022/10/12 08:56:00;;;;;;;86.07;22.80;;;8.50;99.90;;;;;;5034116;28;20174;-84
2022/10/12 08:58:32;;;;;;;84.35;21.63;;;8.60;99.90;;;;;;5032579;28;20570;-84
2022/10/12 09:01:37;;;;;;;86.10;22.50;;;8.70;99.90;;;;;;5050898;28;20152;-84
2022/10/12 09:04:21;;;;;;;79.05;18.63;;;8.90;99.90;;;;;;5024989;28;20244;-84
2022/10/12 09:07:00;;;;;;;81.72;22.10;;;9.00;99.90;;;;;;5030008;28;20158;-84
2022/10/12 09:09:38;;;;;;;83.93;21.17;;;9.10;99.90;;;;;;5029782;28;20205;-84
2022/10/12 09:12:33;;;;;;;81.85;18.05;;;9.20;99.90;;;;;;5033035;28;20211;-83
2022/10/12 09:15:04;;;;;;;84.50;18.88;;;9.30;99.90;;;;;;5048014;28;20213;-84
2022/10/12 09:17:37;;;;;;;79.35;15.98;;;9.40;99.90;;;;;;5047664;28;20154;-84
2022/10/12 09:20:30;;;;;;;79.10;16.02;;;9.50;99.90;;;;;;5029295;28;20167;-84
2022/10/12 09:23:20;;;;;;;77.95;12.70;;;9.60;99.90;;;;;;5047381;28;20156;-83
2022/10/12 09:25:46;;;;;;;85.35;16.00;;;9.60;99.90;;;;;;5046777;28;20208;-84
2022/10/12 09:28:37;;;;;;;84.60;13.88;;;9.70;99.90;;;;;;5047167;28;20648;-84
2022/10/12 09:31:09;;;;;;;80.13;14.63;;;9.90;99.90;;;;;;5050598;28;20146;-84
2022/10/12 09:33:54;;;;;;;83.03;17.30;;;9.90;99.90;;;;;;5032965;28;20172;-85
2022/10/12 09:36:22;;;;;;;81.35;23.58;;;10.20;99.90;;;;;;5032604;28;20184;-84
2022/10/12 09:38:48;;;;;;;91.55;29.90;;;10.20;99.90;;;;;;5050045;28;20241;-84
2022/10/12 09:41:45;;;;;;;90.13;43.45;;;10.40;99.90;;;;;;5032580;28;20238;-84
2022/10/12 09:44:29;;;;;;;88.00;41.05;;;10.60;99.90;;;;;;5024330;28;20187;-85
2022/10/12 09:46:59;;;;;;;82.53;30.67;;;10.80;99.90;;;;;;5032478;28;20197;-84
2022/10/12 09:49:45;;;;;;;82.43;21.67;;;11.10;99.90;;;;;;5049453;28;20177;-84
2022/10/12 09:52:16;;;;;;;81.88;18.75;;;11.20;99.90;;;;;;5032855;28;20196;-84
2022/10/12 09:54:49;;;;;;;84.50;15.93;;;11.30;99.90;;;;;;5033131;28;20659;-84
2022/10/12 09:57:27;;;;;;;82.55;13.10;;;11.20;99.90;;;;;;5031912;28;20165;-84
2022/10/12 09:59:54;;;;;;;80.03;14.07;;;11.40;99.90;;;;;;5050097;28;20662;-84
2022/10/12 10:02:22;;;;;;;80.18;11.90;;;11.20;99.90;;;;;;5050075;28;20195;-84
2022/10/12 10:04:52;;;;;;;83.57;12.70;;;11.40;99.90;;;;;;5049195;28;20185;-84
2022/10/12 10:07:23;;;;;;;85.38;12.85;;;11.50;99.90;;;;;;5031440;28;20621;-85
2022/10/12 10:10:12;;;;;;;81.65;12.82;;;11.70;99.90;;;;;;5049088;28;20200;-85
2022/10/12 10:12:48;;;;;;;77.90;14.50;;;11.90;99.90;;;;;;5050425;28;20276;-84
2022/10/12 10:15:30;;;;;;;82.22;15.43;;;12.10;99.90;;;;;;5050118;28;20134;-84
2022/10/12 10:18:03;;;;;;;80.95;14.98;;;12.20;99.90;;;;;;5049849;28;20217;-84
2022/10/12 10:20:40;;;;;;;78.38;12.32;;;12.40;99.90;;;;;;5049888;28;20149;-85
2022/10/12 10:23:06;;;;;;;78.57;11.77;;;12.60;99.90;;;;;;5049701;28;20153;-84
2022/10/12 10:25:33;;;;;;;85.13;12.47;;;12.60;99.90;;;;;;5049982;28;20172;-84
2022/10/12 10:28:24;;;;;;;77.60;12.85;;;12.60;99.90;;;;;;5032162;28;20427;-84
2022/10/12 10:31:03;;;;;;;72.80;10.10;;;12.50;99.90;;;;;;5048912;28;20167;-84
2022/10/12 10:33:34;;;;;;;80.10;11.63;;;12.80;99.90;;;;;;5031498;28;20183;-84
2022/10/12 10:36:11;;;;;;;74.90;11.43;;;12.80;99.90;;;;;;5049095;28;20165;-84
2022/10/12 10:39:14;;;;;;;74.87;11.80;;;12.90;99.90;;;;;;5031503;28;20939;-84
2022/10/12 10:41:42;;;;;;;74.47;11.07;;;13.10;99.90;;;;;;5028459;28;20415;-84
2022/10/12 10:44:32;;;;;;;78.35;11.60;;;13.30;99.90;;;;;;5037070;28;20495;-84
2022/10/12 10:47:14;;;;;;;78.50;10.10;;;13.40;99.90;;;;;;5037934;28;20639;-84
2022/10/12 10:49:58;;;;;;;76.50;10.90;;;13.40;96.40;;;;;;5055048;28;20419;-85
2022/10/12 10:52:35;;;;;;;78.90;9.53;;;13.30;92.10;;;;;;5036507;28;20454;-84
2022/10/12 10:55:08;;;;;;;74.37;8.27;;;13.50;98.20;;;;;;5035674;28;20399;-84
2022/10/12 10:57:58;;;;;;;74.30;9.00;;;13.60;96.30;;;;;;5051445;28;20427;-84
2022/10/12 11:00:23;;;;;;;72.60;8.10;;;13.80;95.50;;;;;;5032492;28;20422;-84
2022/10/12 11:02:51;;;;;;;77.77;7.83;;;13.70;86.40;;;;;;5051056;28;20400;-84
2022/10/12 11:05:27;;;;;;;70.97;7.57;;;13.70;95.70;;;;;;5051520;28;20216;-84
2022/10/12 11:10:40;;;;;;;73.67;8.00;;;14.30;92.10;;;;;;5121592;22;20483;-82
2022/10/12 11:13:14;;;;;;;72.50;8.03;;;14.30;70.60;;;;;;5054822;28;20438;-81
2022/10/12 11:15:48;;;;;;;72.40;7.10;;;14.30;78.60;;;;;;5037543;28;20410;-82
2022/10/12 11:18:29;;;;;;;74.90;7.53;;;14.20;75.60;;;;;;5051679;28;20429;-81
2022/10/12 11:21:10;;;;;;;81.17;8.20;;;14.20;84.10;;;;;;5054858;28;20380;-81
2022/10/12 11:23:58;;;;;;;69.47;6.73;;;14.00;65.90;;;;;;5051404;28;20391;-81
2022/10/12 11:26:43;;;;;;;70.70;7.60;;;14.10;84.40;;;;;;5051396;28;20384;-81
2022/10/12 11:29:14;;;;;;;81.73;7.80;;;14.20;72.10;;;;;;5052393;28;20416;-81
2022/10/12 11:32:06;;;;;;;83.73;8.03;;;14.30;70.80;;;;;;5051186;28;20438;-81
2022/10/12 11:34:50;;;;;;;81.70;8.50;;;14.30;75.80;;;;;;5051780;28;20499;-81
2022/10/12 11:37:19;;;;;;;72.37;7.33;;;14.50;80.90;;;;;;5052080;28;20381;-81
2022/10/12 11:39:52;;;;;;;78.03;10.60;;;14.40;58.00;;;;;;5052648;28;20530;-81
2022/10/12 11:42:38;;;;;;;72.13;7.33;;;14.50;49.60;;;;;;5049587;28;20377;-81
2022/10/12 11:45:12;;;;;;;74.20;8.60;;;14.50;54.50;;;;;;5031760;28;20737;-81
2022/10/12 11:47:46;;;;;;;79.40;8.00;;;14.50;60.70;;;;;;5052916;28;20391;-81
2022/10/12 11:50:28;;;;;;;76.17;10.07;;;14.50;65.50;;;;;;5052402;28;20395;-81
2022/10/12 11:52:55;;;;;;;80.73;10.73;;;14.50;65.10;;;;;;5050711;28;20517;-81
2022/10/12 11:55:52;;;;;;;77.00;8.47;;;14.50;64.70;;;;;;5028193;28;20419;-81
2022/10/12 11:58:23;;;;;;;74.53;8.83;;;14.50;73.00;;;;;;5048065;28;20494;-81
2022/10/12 12:01:01;;;;;;;78.13;8.43;;;14.80;65.50;;;;;;5048706;28;20383;-81
2022/10/12 12:03:54;;;;;;;77.43;8.90;;;14.90;66.50;;;;;;5046312;28;20400;-81
2022/10/12 12:06:29;;;;;;;72.57;7.83;;;14.80;66.40;;;;;;5029510;28;20415;-82
2022/10/12 12:08:55;;;;;;;76.03;8.20;;;14.90;53.90;;;;;;5047845;28;20444;-81
2022/10/12 12:11:28;;;;;;;72.60;8.50;;;15.10;54.80;;;;;;5046648;28;20469;-82
2022/10/12 12:14:26;;;;;;;75.33;7.53;;;15.40;51.90;;;;;;5047008;28;20923;-81
2022/10/12 12:17:20;;;;;;;75.17;8.73;;;15.70;37.60;;;;;;5027080;28;20422;-82
2022/10/12 12:20:00;;;;;;;74.70;8.97;;;15.80;36.20;;;;;;5049763;28;20414;-82
2022/10/12 12:22:29;;;;;;;74.90;9.23;;;15.90;29.50;;;;;;5050644;28;20758;-82
2022/10/12 12:25:04;;;;;;;76.17;9.87;;;16.00;38.90;;;;;;5031363;28;20429;-82
2022/10/12 12:27:35;;;;;;;75.87;9.00;;;15.80;37.90;;;;;;5049161;28;20406;-81
2022/10/12 12:30:20;;;;;;;69.77;9.50;;;15.50;39.40;;;;;;5049032;28;20402;-82
2022/10/12 12:32:46;;;;;;;79.13;10.10;;;15.50;40.80;;;;;;5032723;28;20480;-81
2022/10/12 12:35:27;;;;;;;75.70;9.10;;;15.30;48.80;;;;;;5049636;28;20383;-82
2022/10/12 12:38:11;;;;;;;74.47;8.40;;;15.50;40.00;;;;;;5049377;28;20164;-81
2022/10/12 12:40:39;;;;;;;76.37;9.47;;;15.60;43.30;;;;;;5031248;28;20908;-82
2022/10/12 12:43:34;;;;;;;73.30;7.40;;;15.70;40.90;;;;;;5027877;28;20461;-81
2022/10/12 12:46:06;;;;;;;73.40;6.90;;;15.70;37.50;;;;;;5044866;28;20482;-81
2022/10/12 12:48:38;;;;;;;74.50;7.70;;;15.80;37.80;;;;;;5044557;28;20790;-82
2022/10/12 12:51:23;;;;;;;72.07;8.30;;;15.80;41.60;;;;;;5044445;28;20405;-81
2022/10/12 12:54:03;;;;;;;71.13;6.90;;;15.90;38.70;;;;;;5042234;28;20728;-81
2022/10/12 12:56:49;;;;;;;69.87;7.50;;;16.00;38.70;;;;;;5044238;28;20378;-81
2022/10/12 13:00:03;;;;;;;73.03;8.43;;;15.90;41.90;;;;;;5043262;28;20415;-81